Time;durP1;ratioP1;P1;durP2;ratioP2;P2;SDS_P1;SDS_P2;PMS_P1;PMS_P2;Temp;Humidity;BMP_temperature;BMP_pressure;BME280_temperature;BME280_humidity;BME280_pressure;Samples;Min_cycle;Max_cycle;Signal;HPM_P1;HPM_P2
2022/07/14 00:02:13;;;;;;;8.00;3.80;;;21.90;75.90;;;;;;5026239;28;20034;-79
2022/07/14 00:04:39;;;;;;;6.95;2.10;;;21.90;75.80;;;;;;5030284;28;20494;-80
2022/07/14 00:07:04;;;;;;;3.03;1.60;;;21.90;76.40;;;;;;5032620;28;20030;-79
2022/07/14 00:09:31;;;;;;;3.88;1.42;;;21.80;76.40;;;;;;5022328;28;20034;-77
2022/07/14 00:11:57;;;;;;;10.30;2.08;;;21.80;76.00;;;;;;5040274;28;20034;-80
2022/07/14 00:14:23;;;;;;;3.65;1.92;;;21.80;75.70;;;;;;5024201;28;20315;-81
2022/07/14 00:16:48;;;;;;;3.78;1.60;;;21.80;76.30;;;;;;5040903;28;20057;-78
2022/07/14 00:19:14;;;;;;;6.47;1.80;;;21.80;76.60;;;;;;5040645;28;20018;-79
2022/07/14 00:21:40;;;;;;;4.95;1.48;;;21.70;76.70;;;;;;5040539;28;20093;-79
2022/07/14 00:24:09;;;;;;;3.78;1.70;;;21.70;76.00;;;;;;5023433;28;20033;-79
2022/07/14 00:26:35;;;;;;;3.08;1.30;;;21.60;76.20;;;;;;5040520;28;20034;-80
2022/07/14 00:29:01;;;;;;;2.95;1.80;;;21.60;77.10;;;;;;5039812;28;20018;-80
2022/07/14 00:31:27;;;;;;;4.25;1.83;;;21.60;76.20;;;;;;5023093;28;20052;-78
2022/07/14 00:33:52;;;;;;;5.10;2.00;;;21.60;76.20;;;;;;5023104;28;20064;-80
2022/07/14 00:36:18;;;;;;;1.92;1.50;;;21.50;76.90;;;;;;5039988;28;20030;-80
2022/07/14 00:38:44;;;;;;;2.70;1.63;;;21.50;76.00;;;;;;5039435;28;20493;-79
2022/07/14 00:41:10;;;;;;;6.32;2.10;;;21.50;76.60;;;;;;5040046;28;20037;-79
2022/07/14 00:43:36;;;;;;;4.70;2.00;;;21.40;76.60;;;;;;5022946;28;20010;-77
2022/07/14 00:46:02;;;;;;;4.00;1.98;;;21.40;76.20;;;;;;5039069;28;20134;-78
2022/07/14 00:48:28;;;;;;;4.28;1.60;;;21.40;77.20;;;;;;5039200;28;20045;-79
2022/07/14 00:50:53;;;;;;;5.72;2.00;;;21.40;77.40;;;;;;5021866;28;20060;-79
2022/07/14 00:53:20;;;;;;;2.53;1.50;;;21.30;77.50;;;;;;5022194;28;20041;-79
2022/07/14 00:55:46;;;;;;;4.25;2.20;;;21.30;77.70;;;;;;5021524;28;20073;-80
2022/07/14 00:58:13;;;;;;;5.57;3.00;;;21.30;78.20;;;;;;5021944;28;20052;-79
2022/07/14 01:00:39;;;;;;;7.20;4.65;;;21.30;78.70;;;;;;5038845;28;20033;-81
2022/07/14 01:03:05;;;;;;;7.85;5.10;;;21.20;79.30;;;;;;5038772;28;20041;-80
2022/07/14 01:05:32;;;;;;;10.57;5.75;;;21.20;79.20;;;;;;5021679;28;20022;-79
2022/07/14 01:07:58;;;;;;;6.05;3.05;;;21.20;78.60;;;;;;5021036;28;20014;-79
2022/07/14 01:10:24;;;;;;;7.38;4.88;;;21.20;77.70;;;;;;5039284;28;20030;-80
2022/07/14 01:12:50;;;;;;;10.35;6.85;;;21.30;79.00;;;;;;5038923;28;20037;-79
2022/07/14 01:15:18;;;;;;;12.02;7.18;;;21.30;79.00;;;;;;5039408;28;20081;-78
2022/07/14 01:17:47;;;;;;;13.55;7.45;;;21.20;79.20;;;;;;5022672;28;20037;-79
2022/07/14 01:20:13;;;;;;;10.82;6.50;;;21.20;79.10;;;;;;5039853;28;20326;-80
2022/07/14 01:22:39;;;;;;;7.03;3.90;;;21.20;79.90;;;;;;5039971;28;20010;-79
2022/07/14 01:25:07;;;;;;;9.55;5.80;;;21.20;79.00;;;;;;5038431;28;20086;-79
2022/07/14 01:27:33;;;;;;;7.03;4.60;;;21.10;79.40;;;;;;5038220;28;20144;-78
2022/07/14 01:30:00;;;;;;;6.88;4.30;;;21.20;78.20;;;;;;5021988;28;20040;-79
2022/07/14 01:32:25;;;;;;;16.83;4.03;;;21.20;79.70;;;;;;5022239;28;20037;-78
2022/07/14 01:34:52;;;;;;;6.20;3.80;;;21.20;79.00;;;;;;5020587;28;20034;-79
2022/07/14 01:37:18;;;;;;;5.35;3.20;;;21.20;78.90;;;;;;5021803;28;20025;-78
2022/07/14 01:39:44;;;;;;;5.03;2.58;;;21.20;79.10;;;;;;5022388;28;20041;-80
2022/07/14 01:42:11;;;;;;;4.53;1.90;;;21.20;78.40;;;;;;5022479;28;20014;-79
2022/07/14 01:44:37;;;;;;;4.00;2.00;;;21.30;76.90;;;;;;5022387;28;20029;-77
2022/07/14 01:47:04;;;;;;;5.28;1.73;;;21.30;76.70;;;;;;5019578;28;20029;-79
2022/07/14 01:49:29;;;;;;;3.38;2.22;;;21.30;76.90;;;;;;5030924;28;20037;-81
2022/07/14 01:51:56;;;;;;;3.45;2.20;;;21.30;77.70;;;;;;5015963;28;20033;-79
2022/07/14 01:54:25;;;;;;;5.30;2.08;;;21.30;77.50;;;;;;5013543;28;20094;-81
2022/07/14 01:56:51;;;;;;;5.82;2.50;;;21.20;77.60;;;;;;5014563;28;20041;-81
2022/07/14 01:59:17;;;;;;;3.58;2.38;;;21.20;78.10;;;;;;5032177;28;20026;-80
2022/07/14 02:01:44;;;;;;;6.78;1.85;;;21.20;78.30;;;;;;5002524;28;20009;-81
2022/07/14 02:04:16;;;;;;;7.15;2.45;;;21.10;78.20;;;;;;5005036;28;20033;-79
2022/07/14 02:06:43;;;;;;;5.00;2.53;;;21.10;78.20;;;;;;5038545;28;20022;-79
2022/07/14 02:09:14;;;;;;;3.38;2.05;;;21.10;79.10;;;;;;5006092;28;20025;-79
2022/07/14 02:14:26;;;;;;;3.83;2.50;;;21.10;79.40;;;;;;5021363;28;20060;-80
2022/07/14 02:16:54;;;;;;;2.83;1.90;;;21.10;79.90;;;;;;5016756;28;20021;-78
2022/07/14 02:19:20;;;;;;;4.22;2.22;;;21.00;79.60;;;;;;5015945;28;20032;-79
2022/07/14 02:21:47;;;;;;;3.85;2.55;;;21.00;80.10;;;;;;5021649;28;20033;-79
2022/07/14 02:24:13;;;;;;;6.32;2.08;;;20.90;82.60;;;;;;5021793;28;20064;-78
2022/07/14 02:26:41;;;;;;;4.63;2.20;;;20.80;84.00;;;;;;5019627;28;20033;-78
2022/07/14 02:29:07;;;;;;;3.67;2.00;;;20.80;84.80;;;;;;5018490;28;20037;-77
2022/07/14 02:31:34;;;;;;;5.88;2.40;;;20.70;85.40;;;;;;5027200;23;20181;-85
2022/07/14 02:34:00;;;;;;;5.22;2.50;;;20.60;85.80;;;;;;5013960;28;20026;-85
2022/07/14 02:36:27;;;;;;;4.70;2.03;;;20.60;86.30;;;;;;5013120;28;20026;-84
2022/07/14 02:38:54;;;;;;;7.78;2.28;;;20.50;85.90;;;;;;4997453;28;20034;-84
2022/07/14 02:41:20;;;;;;;5.88;2.60;;;20.50;86.20;;;;;;4995096;28;20030;-85
2022/07/14 02:43:46;;;;;;;6.65;2.45;;;20.50;86.60;;;;;;5010971;28;20018;-84
2022/07/14 02:46:12;;;;;;;5.18;2.60;;;20.50;86.60;;;;;;5010396;28;20040;-85
2022/07/14 02:48:39;;;;;;;5.80;2.72;;;20.50;86.50;;;;;;4999040;28;20559;-82
2022/07/14 02:51:09;;;;;;;3.20;2.20;;;20.50;86.60;;;;;;4999689;28;20026;-85
2022/07/14 02:53:36;;;;;;;5.03;2.10;;;20.60;84.70;;;;;;5000707;28;20113;-82
2022/07/14 02:56:05;;;;;;;6.40;2.30;;;20.60;85.50;;;;;;4985343;28;20058;-82
2022/07/14 02:58:34;;;;;;;5.85;2.40;;;20.60;84.20;;;;;;4993001;28;20050;-85
2022/07/14 03:01:00;;;;;;;7.40;2.85;;;20.60;85.50;;;;;;4991121;28;20026;-87
2022/07/14 03:03:25;;;;;;;3.75;2.13;;;20.60;85.70;;;;;;5000696;28;20070;-86
2022/07/14 03:05:52;;;;;;;5.18;2.22;;;20.60;86.00;;;;;;4995011;28;20022;-85
2022/07/14 03:08:20;;;;;;;4.97;2.30;;;20.50;86.00;;;;;;5001071;28;20018;-84
2022/07/14 03:10:46;;;;;;;4.38;2.35;;;20.50;86.10;;;;;;5001170;28;20025;-85
2022/07/14 03:13:12;;;;;;;6.43;2.35;;;20.40;86.40;;;;;;5001442;28;20026;-83
2022/07/14 03:15:40;;;;;;;7.70;2.35;;;20.40;86.80;;;;;;5001559;28;20015;-83
2022/07/14 03:18:06;;;;;;;6.70;2.40;;;20.40;87.10;;;;;;5001501;28;20025;-82
2022/07/14 03:20:36;;;;;;;6.13;2.45;;;20.30;87.40;;;;;;5001553;28;20034;-81
2022/07/14 03:23:02;;;;;;;7.03;2.75;;;20.30;86.20;;;;;;5001590;28;20024;-82
2022/07/14 03:25:29;;;;;;;7.32;2.30;;;20.30;88.40;;;;;;5001225;28;20037;-83
2022/07/14 03:27:56;;;;;;;7.82;2.63;;;20.30;88.30;;;;;;5016106;28;20053;-83
2022/07/14 03:30:28;;;;;;;9.95;3.15;;;20.30;88.80;;;;;;4992983;28;20027;-85
2022/07/14 03:32:54;;;;;;;8.13;2.67;;;20.30;89.40;;;;;;4991423;28;20038;-85
2022/07/14 03:35:20;;;;;;;8.88;2.65;;;20.30;89.20;;;;;;5009790;28;20062;-86
2022/07/14 03:37:47;;;;;;;8.60;2.20;;;20.40;89.40;;;;;;4992949;28;20022;-84
2022/07/14 03:40:13;;;;;;;8.32;2.42;;;20.40;89.50;;;;;;4992211;28;20022;-85
2022/07/14 03:42:39;;;;;;;5.07;2.22;;;20.40;89.70;;;;;;4991068;28;20070;-86
2022/07/14 03:45:05;;;;;;;3.42;2.35;;;20.40;89.60;;;;;;5007626;28;20022;-86
2022/07/14 03:47:32;;;;;;;2.95;2.03;;;20.40;89.50;;;;;;4989545;28;20122;-85
2022/07/14 03:49:58;;;;;;;3.92;1.95;;;20.50;89.60;;;;;;4988961;28;20022;-84
2022/07/14 03:52:25;;;;;;;7.63;2.03;;;20.60;89.30;;;;;;4989783;28;20046;-87
2022/07/14 03:54:50;;;;;;;6.47;2.40;;;20.70;89.10;;;;;;5008212;28;20049;-83
2022/07/14 03:57:19;;;;;;;6.00;1.98;;;20.70;88.70;;;;;;5003850;28;20032;-85
2022/07/14 03:59:46;;;;;;;5.18;2.08;;;20.80;88.50;;;;;;4985997;28;20049;-84
2022/07/14 04:02:15;;;;;;;4.65;2.20;;;20.80;87.10;;;;;;4988157;28;20123;-85
2022/07/14 04:04:40;;;;;;;4.20;2.00;;;20.90;86.00;;;;;;4997077;28;20018;-86
2022/07/14 04:07:08;;;;;;;4.30;1.60;;;21.00;84.90;;;;;;4994607;28;20034;-84
2022/07/14 04:09:34;;;;;;;4.40;1.50;;;21.10;83.90;;;;;;4977743;28;20078;-84
2022/07/14 04:12:01;;;;;;;2.90;1.50;;;21.10;83.10;;;;;;4977073;28;20050;-83
2022/07/14 04:14:27;;;;;;;2.22;1.50;;;21.20;82.60;;;;;;4977353;28;20092;-86
2022/07/14 04:16:53;;;;;;;8.60;1.92;;;21.30;82.30;;;;;;4994859;28;20015;-85
2022/07/14 04:19:20;;;;;;;2.53;1.55;;;21.30;81.80;;;;;;4994945;28;20027;-85
2022/07/14 04:21:47;;;;;;;4.00;2.08;;;21.30;81.70;;;;;;4996686;28;20015;-86
2022/07/14 04:24:13;;;;;;;3.85;1.98;;;21.40;81.50;;;;;;4977628;28;20067;-87
2022/07/14 04:26:42;;;;;;;4.15;1.95;;;21.50;82.60;;;;;;4980998;28;20070;-86
2022/07/14 04:29:08;;;;;;;3.42;1.77;;;21.60;82.90;;;;;;4980786;28;20015;-87
2022/07/14 04:31:35;;;;;;;4.63;1.70;;;21.70;83.40;;;;;;4964814;28;20510;-89
2022/07/14 04:34:02;;;;;;;7.05;2.05;;;21.80;84.60;;;;;;4979276;28;20038;-87
2022/07/14 04:36:30;;;;;;;11.35;2.17;;;21.80;84.30;;;;;;4980210;28;20031;-87
2022/07/14 04:38:57;;;;;;;7.00;2.30;;;21.80;85.00;;;;;;4979903;28;20023;-87
2022/07/14 04:41:24;;;;;;;12.93;2.30;;;21.80;86.40;;;;;;4980694;28;20023;-86
2022/07/14 04:43:52;;;;;;;5.45;2.13;;;21.80;86.40;;;;;;4982424;28;20083;-86
2022/07/14 04:46:18;;;;;;;4.60;2.05;;;21.90;87.00;;;;;;4979608;28;20038;-88
2022/07/14 04:54:21;;;;;;;7.68;2.40;;;22.10;86.00;;;;;;4977525;28;20024;-86
2022/07/14 04:56:59;;;;;;;9.00;2.40;;;22.10;86.10;;;;;;4982839;28;20078;-88
2022/07/14 04:59:32;;;;;;;8.00;2.38;;;22.10;86.90;;;;;;4970100;28;20042;-88
2022/07/14 05:02:00;;;;;;;7.35;2.25;;;22.00;88.10;;;;;;4984911;28;20054;-87
2022/07/14 05:04:26;;;;;;;7.00;2.58;;;22.00;89.00;;;;;;4984744;28;20017;-88
2022/07/14 05:06:55;;;;;;;8.23;2.22;;;21.90;90.10;;;;;;4984188;28;20039;-88
2022/07/14 05:09:24;;;;;;;7.45;2.33;;;21.80;90.20;;;;;;4983667;28;20073;-87
2022/07/14 05:11:52;;;;;;;9.80;2.75;;;21.80;90.40;;;;;;4982236;28;20495;-87
2022/07/14 05:14:18;;;;;;;12.50;2.65;;;21.80;90.40;;;;;;4980029;28;20031;-87
2022/07/14 05:16:45;;;;;;;17.30;8.18;;;21.80;90.50;;;;;;4976745;28;20038;-87
2022/07/14 05:19:11;;;;;;;20.05;6.15;;;21.80;90.60;;;;;;4975373;28;20027;-87
2022/07/14 05:21:37;;;;;;;16.90;2.85;;;21.70;90.60;;;;;;4975865;28;20078;-87
2022/07/14 05:24:03;;;;;;;7.72;2.65;;;21.70;90.50;;;;;;4959751;28;20018;-85
2022/07/14 05:26:29;;;;;;;10.80;2.63;;;21.70;90.50;;;;;;4977942;28;20030;-87
2022/07/14 05:28:55;;;;;;;18.40;3.75;;;21.80;90.60;;;;;;4979306;28;20194;-88
2022/07/14 05:31:21;;;;;;;10.40;2.53;;;21.80;90.70;;;;;;4979579;28;20078;-87
2022/07/14 05:33:49;;;;;;;16.08;2.80;;;21.90;90.80;;;;;;4963082;28;20058;-87
2022/07/14 05:36:15;;;;;;;14.15;2.97;;;21.90;90.90;;;;;;4977570;28;20030;-88
2022/07/14 05:38:42;;;;;;;14.63;2.72;;;22.00;90.90;;;;;;4977386;28;20054;-85
2022/07/14 05:41:09;;;;;;;12.25;3.03;;;22.00;90.80;;;;;;4979882;28;20062;-86
2022/07/14 05:43:36;;;;;;;10.25;2.95;;;22.10;90.90;;;;;;4980198;28;20046;-87
2022/07/14 05:46:04;;;;;;;11.48;3.08;;;22.20;90.80;;;;;;4977273;28;20035;-84
2022/07/14 05:48:31;;;;;;;14.05;3.10;;;22.20;91.00;;;;;;4973687;28;20027;-86
2022/07/14 05:51:12;;;;;;;25.10;3.03;;;22.30;91.10;;;;;;4957868;28;20041;-86
2022/07/14 05:53:40;;;;;;;7.82;2.83;;;22.30;91.30;;;;;;4978672;28;20042;-85
2022/07/14 05:56:07;;;;;;;14.20;3.15;;;22.30;91.20;;;;;;4981904;28;20087;-87
2022/07/14 05:58:35;;;;;;;10.45;2.80;;;22.40;91.10;;;;;;4983332;28;20019;-85
2022/07/14 06:01:02;;;;;;;11.70;2.72;;;22.50;90.80;;;;;;5016229;28;20014;-89
2022/07/14 06:03:29;;;;;;;15.55;3.40;;;22.80;90.70;;;;;;4999774;28;20042;-86
2022/07/14 06:06:01;;;;;;;14.73;2.97;;;23.00;90.30;;;;;;4983986;28;20018;-89
2022/07/14 06:08:28;;;;;;;12.90;2.85;;;23.20;89.80;;;;;;5003044;28;20599;-88
2022/07/14 06:10:58;;;;;;;14.82;3.30;;;23.30;89.30;;;;;;4972918;28;20082;-88
2022/07/14 06:13:26;;;;;;;14.98;3.33;;;23.30;88.50;;;;;;5002332;28;20042;-86
2022/07/14 06:15:53;;;;;;;7.47;2.47;;;23.20;88.50;;;;;;5002764;28;20010;-85
2022/07/14 06:18:19;;;;;;;11.82;2.90;;;23.20;88.10;;;;;;5002180;28;20023;-86
2022/07/14 06:20:47;;;;;;;8.50;2.90;;;23.30;88.90;;;;;;5019267;28;20030;-85
2022/07/14 06:23:13;;;;;;;9.27;3.00;;;23.40;88.00;;;;;;5001776;28;20022;-85
2022/07/14 06:25:39;;;;;;;9.80;2.80;;;23.50;87.30;;;;;;5019182;28;20094;-85
2022/07/14 06:28:07;;;;;;;13.73;2.75;;;23.50;87.30;;;;;;5001725;28;20092;-86
2022/07/14 06:30:34;;;;;;;21.25;3.08;;;23.50;86.40;;;;;;5008457;28;20044;-86
2022/07/14 06:33:01;;;;;;;14.57;3.00;;;23.70;87.00;;;;;;5002800;28;20050;-84
2022/07/14 06:35:27;;;;;;;8.07;2.53;;;23.90;85.70;;;;;;4992846;28;20262;-85
2022/07/14 06:37:55;;;;;;;15.60;2.83;;;24.10;85.30;;;;;;4982900;28;20033;-86
2022/07/14 06:40:21;;;;;;;8.88;2.63;;;24.40;84.70;;;;;;4988623;28;20046;-88
2022/07/14 06:42:49;;;;;;;8.25;2.97;;;24.50;84.40;;;;;;5000488;28;20018;-87
2022/07/14 06:45:34;;;;;;;11.20;2.47;;;24.80;83.40;;;;;;5002585;28;20580;-87
2022/07/14 06:48:00;;;;;;;5.97;2.42;;;24.90;82.90;;;;;;4988446;28;20051;-86
2022/07/14 06:50:26;;;;;;;17.02;2.60;;;24.90;83.00;;;;;;4988745;28;20025;-86
2022/07/14 06:52:53;;;;;;;10.80;2.63;;;24.70;82.70;;;;;;4985356;28;20045;-87
2022/07/14 06:55:18;;;;;;;12.65;2.80;;;24.60;83.00;;;;;;4982521;28;20031;-88
2022/07/14 06:57:44;;;;;;;7.00;2.50;;;24.60;83.40;;;;;;4987600;28;20031;-86
2022/07/14 07:00:11;;;;;;;8.82;2.80;;;24.80;83.00;;;;;;5006207;28;20021;-88
2022/07/14 07:02:37;;;;;;;14.77;3.00;;;24.90;82.20;;;;;;4990893;28;20023;-87
2022/07/14 07:07:51;;;;;;;11.95;2.88;;;25.30;81.10;;;;;;5009754;28;20110;-88
2022/07/14 07:10:18;;;;;;;10.48;2.63;;;25.60;80.20;;;;;;4991789;28;20066;-85
2022/07/14 07:12:44;;;;;;;6.55;2.22;;;25.80;79.80;;;;;;5008928;28;20038;-87
2022/07/14 07:15:10;;;;;;;13.00;2.22;;;26.00;77.10;;;;;;4990140;28;20026;-88
2022/07/14 07:17:36;;;;;;;9.23;2.35;;;26.20;76.50;;;;;;4990383;28;20022;-86
2022/07/14 07:20:01;;;;;;;7.88;2.85;;;26.30;73.80;;;;;;5007399;28;20174;-87
2022/07/14 07:22:27;;;;;;;10.18;2.75;;;26.40;77.40;;;;;;5008686;28;20062;-86
2022/07/14 07:24:53;;;;;;;9.18;2.03;;;26.20;76.80;;;;;;5007078;28;20006;-87
2022/07/14 07:27:19;;;;;;;7.53;2.58;;;26.40;75.10;;;;;;5026374;28;20054;-87
2022/07/14 07:29:46;;;;;;;6.15;1.98;;;26.40;78.10;;;;;;5017535;28;20018;-90
2022/07/14 07:32:13;;;;;;;11.90;2.65;;;26.40;76.10;;;;;;5193288;23;20030;-91
2022/07/14 07:34:39;;;;;;;9.80;2.40;;;26.80;73.40;;;;;;5185677;22;20042;-93
2022/07/14 07:37:06;;;;;;;7.70;2.08;;;27.20;72.20;;;;;;5308185;22;20032;-92
2022/07/14 07:39:36;;;;;;;12.00;3.42;;;27.40;71.90;;;;;;5021309;28;20014;-90
2022/07/14 07:42:02;;;;;;;8.52;2.05;;;27.50;71.50;;;;;;5021223;28;20018;-90
2022/07/14 07:44:30;;;;;;;6.72;1.98;;;27.40;71.40;;;;;;5021325;28;20022;-91
2022/07/14 07:46:57;;;;;;;7.07;1.83;;;27.30;72.70;;;;;;5020385;28;20037;-90
2022/07/14 07:49:23;;;;;;;7.85;2.35;;;27.40;71.10;;;;;;5036773;28;20037;-89
2022/07/14 07:51:49;;;;;;;13.60;2.88;;;27.50;71.40;;;;;;5018195;28;20018;-88
2022/07/14 07:54:15;;;;;;;9.50;3.15;;;27.40;71.80;;;;;;5015302;28;20030;-88
2022/07/14 07:56:41;;;;;;;9.48;3.30;;;27.40;71.30;;;;;;5014356;28;20521;-88
2022/07/14 07:59:07;;;;;;;9.10;3.20;;;27.40;70.90;;;;;;5013411;28;20030;-88
2022/07/14 08:01:34;;;;;;;6.40;1.83;;;27.50;70.80;;;;;;4995278;28;20126;-89
2022/07/14 08:04:00;;;;;;;9.10;1.90;;;27.70;69.70;;;;;;5033903;28;20029;-90
2022/07/14 08:06:28;;;;;;;3.75;1.90;;;27.90;68.60;;;;;;5017061;28;20046;-90
2022/07/14 08:08:54;;;;;;;8.52;3.92;;;28.00;64.60;;;;;;5001452;28;20030;-91
2022/07/14 08:11:21;;;;;;;8.95;3.00;;;28.10;65.10;;;;;;5020493;28;20025;-89
2022/07/14 08:13:46;;;;;;;9.18;2.22;;;28.30;64.90;;;;;;5004901;28;20018;-91
2022/07/14 08:16:12;;;;;;;7.20;1.88;;;28.50;64.80;;;;;;5022898;28;20022;-90
2022/07/14 08:18:38;;;;;;;5.82;1.40;;;28.70;64.10;;;;;;5039777;28;20053;-90
2022/07/14 08:21:05;;;;;;;2.95;1.10;;;28.90;63.20;;;;;;5023307;28;20018;-89
2022/07/14 08:23:31;;;;;;;2.35;0.98;;;28.80;61.40;;;;;;5023464;28;20041;-90
2022/07/14 08:25:57;;;;;;;8.70;1.40;;;28.70;61.20;;;;;;5022957;28;20026;-90
2022/07/14 08:28:23;;;;;;;2.58;1.23;;;28.80;65.10;;;;;;5041145;28;20046;-91
2022/07/14 08:30:49;;;;;;;9.88;1.50;;;28.90;63.00;;;;;;5041226;28;20020;-91
2022/07/14 08:33:15;;;;;;;5.15;0.90;;;28.90;62.50;;;;;;5023256;28;20025;-92
2022/07/14 08:35:41;;;;;;;7.53;1.05;;;29.10;59.10;;;;;;5019670;22;20108;-82
2022/07/14 08:38:06;;;;;;;3.55;0.98;;;29.30;57.60;;;;;;5021780;28;20066;-84
2022/07/14 08:40:36;;;;;;;1.17;0.65;;;29.50;57.50;;;;;;5023103;28;20069;-83
2022/07/14 08:43:02;;;;;;;4.80;1.35;;;29.70;57.20;;;;;;5022996;28;20049;-83
2022/07/14 08:45:34;;;;;;;1.98;1.10;;;29.80;56.20;;;;;;5022175;28;20034;-85
2022/07/14 08:48:00;;;;;;;3.58;0.80;;;29.90;56.10;;;;;;5012548;28;20080;-83
2022/07/14 08:50:26;;;;;;;1.63;0.80;;;30.00;54.20;;;;;;5006351;28;20094;-83
2022/07/14 08:52:52;;;;;;;3.80;0.90;;;30.10;54.80;;;;;;5022685;28;20050;-84
2022/07/14 08:55:19;;;;;;;2.78;0.80;;;30.30;54.70;;;;;;5024012;28;20041;-83
2022/07/14 08:57:46;;;;;;;1.17;0.80;;;30.40;54.50;;;;;;5007155;28;20038;-84
2022/07/14 09:00:17;;;;;;;3.50;0.77;;;30.60;54.10;;;;;;5024404;28;20025;-84
2022/07/14 09:02:53;;;;;;;4.28;0.80;;;30.70;54.10;;;;;;5007248;28;20056;-84
2022/07/14 09:05:19;;;;;;;3.05;1.00;;;31.00;54.40;;;;;;5025128;28;20065;-83
2022/07/14 09:07:45;;;;;;;5.32;1.13;;;31.20;53.50;;;;;;5027533;28;20053;-85
2022/07/14 09:10:17;;;;;;;6.18;1.10;;;31.40;53.50;;;;;;5020509;28;20032;-84
2022/07/14 09:12:44;;;;;;;11.70;1.08;;;31.40;53.30;;;;;;5015333;28;20026;-84
2022/07/14 09:18:00;;;;;;;4.55;1.10;;;30.60;54.00;;;;;;4988263;28;20124;-83
2022/07/14 09:20:31;;;;;;;1.67;0.80;;;30.50;54.30;;;;;;4989402;28;20113;-83
2022/07/14 09:23:02;;;;;;;1.48;0.70;;;30.60;54.70;;;;;;4997221;28;20061;-83
2022/07/14 09:25:29;;;;;;;10.25;0.98;;;30.60;53.70;;;;;;5012629;28;20399;-83
2022/07/14 09:27:55;;;;;;;12.88;1.77;;;30.60;53.20;;;;;;4994753;28;20015;-82
2022/07/14 09:30:23;;;;;;;13.35;1.70;;;30.40;53.10;;;;;;4994570;28;20049;-83
2022/07/14 09:33:00;;;;;;;14.50;1.10;;;30.40;53.20;;;;;;5013701;28;20027;-82
2022/07/14 09:35:33;;;;;;;6.65;1.00;;;30.40;53.60;;;;;;5011851;28;20069;-82
2022/07/14 09:38:12;;;;;;;3.13;0.90;;;30.60;53.80;;;;;;4995646;28;20064;-82
2022/07/14 09:40:39;;;;;;;5.30;0.85;;;30.60;53.60;;;;;;5014678;28;20030;-83
2022/07/14 09:43:08;;;;;;;4.07;1.10;;;30.80;53.80;;;;;;5014946;28;20030;-83
2022/07/14 09:45:36;;;;;;;1.17;0.70;;;30.90;52.30;;;;;;5014445;28;20014;-83
2022/07/14 09:48:09;;;;;;;2.88;1.00;;;31.10;52.60;;;;;;5011368;28;20031;-84
2022/07/14 09:50:36;;;;;;;3.25;0.98;;;31.40;52.80;;;;;;4999096;28;20037;-82
2022/07/14 09:53:13;;;;;;;3.35;1.15;;;31.80;53.50;;;;;;4997493;28;20049;-81
2022/07/14 09:55:42;;;;;;;5.82;1.88;;;31.40;52.40;;;;;;4990506;28;20038;-83
2022/07/14 09:58:08;;;;;;;7.57;1.55;;;31.70;53.20;;;;;;5001360;28;20031;-83
2022/07/14 10:00:35;;;;;;;9.85;1.40;;;32.40;52.00;;;;;;4969824;28;20061;-83
2022/07/14 10:03:04;;;;;;;4.72;1.10;;;32.80;51.70;;;;;;5011538;28;20029;-81
2022/07/14 10:05:34;;;;;;;3.35;0.85;;;33.50;50.70;;;;;;5016636;28;20581;-83
2022/07/14 10:08:05;;;;;;;4.43;1.05;;;34.10;50.20;;;;;;5019574;28;20505;-83
2022/07/14 10:10:35;;;;;;;7.68;1.60;;;33.70;49.80;;;;;;5026516;28;20045;-82
2022/07/14 10:13:04;;;;;;;6.80;1.00;;;33.30;50.10;;;;;;5021598;28;20026;-83
2022/07/14 10:15:31;;;;;;;6.13;0.93;;;33.90;50.20;;;;;;5021071;28;20033;-81
2022/07/14 10:17:59;;;;;;;3.50;0.88;;;35.10;49.40;;;;;;5005056;28;20038;-84
2022/07/14 10:20:26;;;;;;;2.55;0.85;;;36.40;47.90;;;;;;5002879;28;20029;-83
2022/07/14 10:22:54;;;;;;;14.98;1.27;;;37.40;46.80;;;;;;5021530;28;20033;-82
2022/07/14 10:25:21;;;;;;;26.38;2.63;;;37.30;45.90;;;;;;5009573;28;20056;-83
2022/07/14 10:27:48;;;;;;;3.45;0.88;;;37.40;45.80;;;;;;4988456;28;20034;-82
2022/07/14 10:30:15;;;;;;;5.63;0.90;;;37.60;45.40;;;;;;5002273;28;20025;-83
2022/07/14 10:32:50;;;;;;;2.55;0.90;;;38.60;45.30;;;;;;5001450;28;20034;-81
2022/07/14 10:35:35;;;;;;;3.25;0.75;;;40.20;44.10;;;;;;5019210;28;20034;-82
2022/07/14 10:38:17;;;;;;;5.10;0.80;;;38.10;43.70;;;;;;5020565;28;20064;-83
2022/07/14 10:41:30;;;;;;;3.92;0.80;;;36.90;45.60;;;;;;5004025;28;20396;-82
2022/07/14 10:44:10;;;;;;;6.15;1.00;;;37.20;45.50;;;;;;4984282;28;20046;-82
2022/07/14 10:46:38;;;;;;;4.55;0.70;;;38.40;44.50;;;;;;5021162;28;20034;-82
2022/07/14 10:49:06;;;;;;;3.75;0.73;;;39.20;43.50;;;;;;5025666;28;20032;-82
2022/07/14 10:51:33;;;;;;;5.35;1.08;;;38.30;44.20;;;;;;5023932;28;20022;-82
2022/07/14 10:54:08;;;;;;;5.57;1.02;;;37.70;44.70;;;;;;5008637;28;20464;-81
2022/07/14 10:56:35;;;;;;;7.10;1.00;;;38.10;44.90;;;;;;5005838;28;20085;-82
2022/07/14 10:59:26;;;;;;;1.90;1.10;;;37.90;45.00;;;;;;5023634;28;20026;-81
2022/07/14 11:02:15;;;;;;;3.95;0.80;;;37.40;45.10;;;;;;5023740;28;20029;-83
2022/07/14 11:05:11;;;;;;;3.95;1.02;;;37.60;44.30;;;;;;5011251;28;20119;-84
2022/07/14 11:08:02;;;;;;;4.03;0.98;;;39.80;43.50;;;;;;5002788;28;20481;-81
2022/07/14 11:10:28;;;;;;;6.55;0.80;;;39.10;42.90;;;;;;5025926;28;20028;-82
2022/07/14 11:13:03;;;;;;;1.85;0.60;;;38.10;43.60;;;;;;5026243;28;20478;-82
2022/07/14 11:15:40;;;;;;;5.50;1.00;;;38.50;44.20;;;;;;5029047;28;20026;-82
2022/07/14 11:18:28;;;;;;;2.63;0.98;;;39.50;43.20;;;;;;5034552;28;20115;-83
2022/07/14 11:21:12;;;;;;;7.32;1.40;;;39.00;43.20;;;;;;5034711;28;20040;-83
2022/07/14 11:23:55;;;;;;;5.50;1.05;;;39.30;42.90;;;;;;5019406;28;20081;-81
2022/07/14 11:26:41;;;;;;;12.30;1.38;;;39.40;42.60;;;;;;5033457;28;20093;-81
2022/07/14 11:29:09;;;;;;;6.20;0.90;;;38.80;43.10;;;;;;5021887;28;20085;-82
2022/07/14 11:31:46;;;;;;;2.00;1.08;;;38.40;43.20;;;;;;5022813;28;20025;-83
2022/07/14 11:37:15;;;;;;;7.20;0.90;;;39.70;42.80;;;;;;5006236;28;20033;-82
2022/07/14 11:39:44;;;;;;;1.48;0.88;;;40.20;42.60;;;;;;5023124;28;20017;-82
2022/07/14 11:42:12;;;;;;;6.95;0.93;;;40.70;42.10;;;;;;4997753;28;20092;-82
2022/07/14 11:44:40;;;;;;;6.72;1.05;;;41.30;41.70;;;;;;4994163;28;20034;-82
2022/07/14 11:47:18;;;;;;;2.97;0.90;;;41.60;41.50;;;;;;5002926;28;20034;-83
2022/07/14 11:50:07;;;;;;;3.90;0.88;;;41.20;41.90;;;;;;5012313;28;20030;-83
2022/07/14 11:52:38;;;;;;;6.57;0.88;;;39.90;42.40;;;;;;5011553;28;20026;-82
2022/07/14 11:55:08;;;;;;;6.28;1.40;;;39.20;42.60;;;;;;4995819;28;20038;-84
2022/07/14 11:57:33;;;;;;;1.40;1.00;;;37.80;43.40;;;;;;5009356;28;20037;-82
2022/07/14 12:00:05;;;;;;;1.55;1.08;;;37.70;43.90;;;;;;4994553;28;20030;-83
2022/07/14 12:02:31;;;;;;;5.28;0.90;;;38.50;43.10;;;;;;5014054;28;20037;-83
2022/07/14 12:04:58;;;;;;;2.40;1.40;;;39.10;42.90;;;;;;4998356;28;20030;-83
2022/07/14 12:07:47;;;;;;;1.85;1.00;;;39.40;42.70;;;;;;5013185;28;20030;-83
2022/07/14 12:10:16;;;;;;;2.03;0.80;;;38.40;43.20;;;;;;4988853;28;20164;-82
2022/07/14 12:12:44;;;;;;;8.63;1.20;;;40.40;42.70;;;;;;4989974;28;20033;-83
2022/07/14 12:15:11;;;;;;;5.60;1.30;;;42.40;41.60;;;;;;5012025;28;20030;-81
2022/07/14 12:17:48;;;;;;;9.75;1.30;;;41.30;41.00;;;;;;4995724;28;20026;-82
2022/07/14 12:20:14;;;;;;;2.83;1.10;;;40.60;41.30;;;;;;5027336;28;20037;-83
2022/07/14 12:22:44;;;;;;;2.08;0.90;;;39.50;41.80;;;;;;5010272;28;20061;-86
2022/07/14 12:25:27;;;;;;;2.05;0.88;;;39.80;42.40;;;;;;5007243;28;20042;-80
2022/07/14 12:27:54;;;;;;;3.33;0.90;;;42.50;40.80;;;;;;5012269;28;20054;-81
2022/07/14 12:30:20;;;;;;;3.92;0.90;;;44.80;39.80;;;;;;5007473;28;20462;-82
2022/07/14 12:32:52;;;;;;;0.80;0.80;;;46.20;39.10;;;;;;4989148;28;20530;-83
2022/07/14 12:35:20;;;;;;;3.80;1.13;;;46.40;38.80;;;;;;5001514;28;20061;-83
2022/07/14 12:37:46;;;;;;;1.13;0.88;;;47.20;38.20;;;;;;4991838;28;20065;-81
2022/07/14 12:40:12;;;;;;;3.92;1.10;;;47.70;38.70;;;;;;4990612;28;20054;-83
2022/07/14 12:42:38;;;;;;;2.05;0.95;;;47.10;37.80;;;;;;5000259;28;20034;-82
2022/07/14 12:45:07;;;;;;;2.80;1.00;;;45.80;37.90;;;;;;5004514;28;20046;-82
2022/07/14 12:47:51;;;;;;;7.35;1.00;;;44.70;38.70;;;;;;5008290;28;20025;-83
2022/07/14 12:50:23;;;;;;;6.55;1.10;;;45.00;38.90;;;;;;5021664;28;20061;-82
2022/07/14 12:52:50;;;;;;;4.03;0.80;;;46.80;38.30;;;;;;4992968;28;20026;-83
2022/07/14 12:55:38;;;;;;;3.67;1.13;;;47.60;37.90;;;;;;5009233;28;20023;-83
2022/07/14 12:58:06;;;;;;;7.60;1.13;;;46.00;37.80;;;;;;5009439;28;20073;-83
2022/07/14 13:00:33;;;;;;;7.53;1.20;;;45.80;38.20;;;;;;5008877;28;20019;-83
2022/07/14 13:03:17;;;;;;;3.40;1.00;;;46.50;37.70;;;;;;5010498;28;20486;-84
2022/07/14 13:05:54;;;;;;;5.15;1.00;;;47.20;37.50;;;;;;5030679;28;20038;-83
2022/07/14 13:08:32;;;;;;;2.15;1.20;;;48.20;37.10;;;;;;4996354;28;20034;-84
2022/07/14 13:10:59;;;;;;;1.38;1.00;;;47.60;37.50;;;;;;5022181;28;20041;-83